createdAt,value
2017-09-26T00:00:55.764Z,0
2017-09-26T00:02:05.712Z,0
2017-09-26T00:03:15.980Z,0
2017-09-26T00:04:26.249Z,0
2017-09-26T00:05:36.196Z,0
2017-09-26T00:06:46.141Z,0
2017-09-26T00:07:56.416Z,0
2017-09-26T00:09:06.695Z,0
2017-09-26T00:10:16.329Z,0
2017-09-26T00:11:26.281Z,0
2017-09-26T00:12:36.232Z,0
2017-09-26T00:13:46.512Z,0
2017-09-26T00:14:56.469Z,0
2017-09-26T00:16:06.747Z,0
2017-09-26T00:17:17.022Z,0
2017-09-26T00:18:27.295Z,0
2017-09-26T00:19:37.242Z,0
2017-09-26T00:20:47.520Z,0
2017-09-26T00:21:57.800Z,0
2017-09-26T00:23:08.082Z,0
2017-09-26T00:24:18.038Z,0
2017-09-26T00:25:28.325Z,0
2017-09-26T00:26:38.283Z,0
2017-09-26T00:27:48.564Z,0
2017-09-26T00:28:58.903Z,0
2017-09-26T00:30:09.184Z,0
2017-09-26T00:31:19.147Z,0
2017-09-26T00:32:29.107Z,0
2017-09-26T00:33:38.740Z,0
2017-09-26T00:34:49.022Z,0
2017-09-26T00:35:59.364Z,0
2017-09-26T00:37:09.644Z,0
2017-09-26T00:38:19.605Z,0
2017-09-26T00:39:29.885Z,0
2017-09-26T00:40:39.847Z,0
2017-09-26T00:41:50.134Z,0
2017-09-26T00:43:00.452Z,0
2017-09-26T00:44:10.416Z,0
2017-09-26T00:45:20.685Z,0
2017-09-26T00:46:30.965Z,0
2017-09-26T00:47:41.239Z,0
2017-09-26T00:48:51.520Z,0
2017-09-26T00:50:01.800Z,0
2017-09-26T00:51:12.083Z,0
2017-09-26T00:52:22.040Z,0
2017-09-26T00:53:32.310Z,0
2017-09-26T00:54:42.610Z,0
2017-09-26T00:55:52.896Z,0
2017-09-26T00:57:03.179Z,0
2017-09-26T00:58:13.174Z,0
2017-09-26T00:59:23.446Z,0
2017-09-26T01:00:33.735Z,0
2017-09-26T01:01:44.015Z,0
2017-09-26T01:02:54.295Z,0
2017-09-26T01:04:04.248Z,0
2017-09-26T01:05:14.204Z,0
2017-09-26T01:06:23.838Z,0
2017-09-26T01:07:33.788Z,0
2017-09-26T01:08:43.742Z,0
2017-09-26T01:09:54.015Z,0
2017-09-26T01:11:04.317Z,0
2017-09-26T01:12:14.591Z,0
2017-09-26T01:13:24.871Z,0
2017-09-26T01:14:35.142Z,0
2017-09-26T01:15:45.094Z,0
2017-09-26T01:16:55.369Z,0
2017-09-26T01:18:05.646Z,0
2017-09-26T01:19:15.601Z,0
2017-09-26T01:20:25.876Z,0
2017-09-26T01:21:36.150Z,0
2017-09-26T01:22:46.431Z,0
2017-09-26T01:23:56.383Z,0
2017-09-26T01:25:06.665Z,0
2017-09-26T01:26:16.295Z,0
2017-09-26T01:27:26.573Z,0
2017-09-26T01:28:36.850Z,0
2017-09-26T01:29:47.127Z,0
2017-09-26T01:30:57.073Z,0
2017-09-26T01:32:07.349Z,0
2017-09-26T01:33:17.624Z,0
2017-09-26T01:34:27.897Z,0
2017-09-26T01:35:38.167Z,0
2017-09-26T01:36:48.120Z,0
2017-09-26T01:37:58.402Z,0
2017-09-26T01:39:08.389Z,0
2017-09-26T01:40:18.662Z,0
2017-09-26T01:41:28.933Z,0
2017-09-26T01:42:39.215Z,0
2017-09-26T01:43:49.174Z,0
2017-09-26T01:44:58.803Z,0
2017-09-26T01:46:09.075Z,0
2017-09-26T01:47:18.705Z,0
2017-09-26T01:48:28.983Z,0
2017-09-26T01:49:39.258Z,0
2017-09-26T01:50:49.530Z,0
2017-09-26T01:51:59.807Z,0
2017-09-26T01:53:10.087Z,0
2017-09-26T01:54:20.039Z,0
2017-09-26T01:55:30.321Z,0
2017-09-26T01:56:40.284Z,0
2017-09-26T01:57:50.560Z,0
2017-09-26T01:59:00.840Z,0
2017-09-26T02:00:10.796Z,0
2017-09-26T02:01:20.752Z,0
2017-09-26T02:02:31.032Z,0
2017-09-26T02:03:40.995Z,0
2017-09-26T02:04:50.942Z,0
2017-09-26T02:06:00.893Z,0
2017-09-26T02:07:11.171Z,0
2017-09-26T02:08:21.230Z,0
2017-09-26T02:09:31.182Z,0
2017-09-26T02:10:41.143Z,0
2017-09-26T02:11:51.416Z,0
2017-09-26T02:13:01.367Z,0
2017-09-26T02:14:11.475Z,0
2017-09-26T02:15:21.750Z,0
2017-09-26T02:16:31.698Z,0
2017-09-26T02:17:41.977Z,0
2017-09-26T02:18:52.253Z,0
2017-09-26T02:20:02.528Z,0
2017-09-26T02:21:12.800Z,0
2017-09-26T02:22:23.078Z,0
2017-09-26T02:23:33.357Z,0
2017-09-26T02:24:43.643Z,0
2017-09-26T02:25:53.912Z,0
2017-09-26T02:27:04.193Z,0
2017-09-26T02:28:13.824Z,0
2017-09-26T02:29:23.456Z,0
2017-09-26T02:30:33.729Z,0
2017-09-26T02:31:43.707Z,0
2017-09-26T02:32:53.662Z,0
2017-09-26T02:34:03.613Z,0
2017-09-26T02:35:13.897Z,0
2017-09-26T02:36:23.535Z,0
2017-09-26T02:37:33.491Z,0
2017-09-26T02:38:43.445Z,0
2017-09-26T02:39:53.078Z,0
2017-09-26T02:41:03.359Z,0
2017-09-26T02:42:13.651Z,0
2017-09-26T02:43:23.929Z,0
2017-09-26T02:44:33.882Z,0
2017-09-26T02:45:44.172Z,0
2017-09-26T02:46:53.806Z,0
2017-09-26T02:48:03.778Z,0
2017-09-26T02:49:13.414Z,0
2017-09-26T02:50:23.051Z,0
2017-09-26T02:51:33.326Z,0
2017-09-26T02:52:43.598Z,0
2017-09-26T02:53:53.875Z,0
2017-09-26T02:55:03.828Z,0
2017-09-26T02:56:13.455Z,0
2017-09-26T02:57:22.772Z,0
2017-09-26T02:58:32.401Z,0
2017-09-26T02:59:42.676Z,0
2017-09-26T03:00:52.633Z,0
2017-09-26T03:02:02.592Z,0
2017-09-26T03:03:12.593Z,0
2017-09-26T03:04:22.222Z,0
2017-09-26T03:05:32.501Z,0
2017-09-26T03:06:42.782Z,0
2017-09-26T03:07:53.054Z,0
2017-09-26T03:09:03.329Z,0
2017-09-26T03:10:13.610Z,0
2017-09-26T03:11:23.561Z,0
2017-09-26T03:12:33.843Z,0
2017-09-26T03:13:44.122Z,0
2017-09-26T03:14:54.075Z,0
2017-09-26T03:16:04.024Z,0
2017-09-26T03:17:14.306Z,0
2017-09-26T03:18:23.944Z,0
2017-09-26T03:19:33.587Z,0
2017-09-26T03:20:43.542Z,0
2017-09-26T03:21:53.500Z,0
2017-09-26T03:23:03.774Z,0
2017-09-26T03:24:13.400Z,0
2017-09-26T03:25:23.681Z,0
2017-09-26T03:26:33.965Z,0
2017-09-26T03:27:43.915Z,0
2017-09-26T03:28:53.868Z,0
2017-09-26T03:30:04.148Z,0
2017-09-26T03:31:14.114Z,0
2017-09-26T03:32:24.392Z,0
2017-09-26T03:33:34.341Z,0
2017-09-26T03:34:43.973Z,0
2017-09-26T03:35:54.242Z,0
2017-09-26T03:37:04.195Z,0
2017-09-26T03:38:14.153Z,0
2017-09-26T03:39:24.101Z,0
2017-09-26T03:40:34.046Z,0
2017-09-26T03:41:44.010Z,0
2017-09-26T03:42:53.969Z,0
2017-09-26T03:44:04.246Z,0
2017-09-26T03:45:13.877Z,0
2017-09-26T03:46:23.831Z,0
2017-09-26T03:47:34.114Z,0
2017-09-26T03:48:44.390Z,0
2017-09-26T03:49:54.674Z,0
2017-09-26T03:51:04.956Z,0
2017-09-26T03:52:15.236Z,0
2017-09-26T03:53:25.195Z,0
2017-09-26T03:54:35.158Z,0
2017-09-26T03:55:45.108Z,0
2017-09-26T03:56:55.065Z,0
2017-09-26T03:58:05.015Z,0
2017-09-26T03:59:15.309Z,0
2017-09-26T04:00:25.259Z,0
2017-09-26T04:01:34.568Z,0
2017-09-26T04:02:44.522Z,0
2017-09-26T04:03:54.157Z,0
2017-09-26T04:05:04.430Z,0
2017-09-26T04:06:14.063Z,0
2017-09-26T04:07:24.014Z,0
2017-09-26T04:08:34.286Z,0
2017-09-26T04:09:44.241Z,0
2017-09-26T04:10:54.513Z,0
2017-09-26T04:12:04.792Z,0
2017-09-26T04:13:15.072Z,0
2017-09-26T04:14:25.021Z,0
2017-09-26T04:15:35.303Z,0
2017-09-26T04:16:45.584Z,0
2017-09-26T04:17:55.538Z,0
2017-09-26T04:19:05.812Z,0
2017-09-26T04:20:16.090Z,0
2017-09-26T04:21:25.725Z,0
2017-09-26T04:22:35.357Z,0
2017-09-26T04:23:45.633Z,0
2017-09-26T04:24:55.909Z,0
2017-09-26T04:26:06.182Z,0
2017-09-26T04:27:16.172Z,0
2017-09-26T04:28:26.127Z,0
2017-09-26T04:29:36.398Z,0
2017-09-26T04:30:46.676Z,0
2017-09-26T04:31:56.945Z,0
2017-09-26T04:33:06.618Z,0
2017-09-26T04:34:16.571Z,0
2017-09-26T04:35:26.526Z,0
2017-09-26T04:36:36.815Z,0
2017-09-26T04:37:46.775Z,0
2017-09-26T04:38:56.722Z,0
2017-09-26T04:40:06.999Z,0
2017-09-26T04:41:16.952Z,0
2017-09-26T04:42:27.235Z,0
2017-09-26T04:43:37.517Z,0
2017-09-26T04:44:47.795Z,0
2017-09-26T04:45:57.106Z,0
2017-09-26T04:47:07.383Z,0
2017-09-26T04:48:17.012Z,0
2017-09-26T04:49:27.304Z,0
2017-09-26T04:50:36.939Z,0
2017-09-26T04:51:47.219Z,0
2017-09-26T04:52:57.492Z,0
2017-09-26T04:54:06.802Z,0
2017-09-26T04:55:17.085Z,0
2017-09-26T04:56:27.036Z,0
2017-09-26T04:57:37.315Z,0
2017-09-26T04:58:47.263Z,0
2017-09-26T04:59:57.214Z,0
2017-09-26T05:01:07.176Z,0
2017-09-26T05:02:16.808Z,0
2017-09-26T05:03:26.441Z,0
2017-09-26T05:04:36.717Z,0
2017-09-26T05:05:46.992Z,0
2017-09-26T05:06:57.271Z,0
2017-09-26T05:08:07.544Z,5
2017-09-26T05:09:17.820Z,5
2017-09-26T05:10:27.768Z,5
2017-09-26T05:11:38.042Z,5
2017-09-26T05:12:48.316Z,5
2017-09-26T05:13:58.583Z,5
2017-09-26T05:15:08.536Z,5
2017-09-26T05:16:18.495Z,10
2017-09-26T05:17:28.767Z,10
2017-09-26T05:18:39.053Z,10
2017-09-26T05:19:49.329Z,10
2017-09-26T05:20:59.309Z,10
2017-09-26T05:22:09.261Z,10
2017-09-26T05:23:18.892Z,15
2017-09-26T05:24:29.172Z,15
2017-09-26T05:25:39.441Z,15
2017-09-26T05:26:49.750Z,20
2017-09-26T05:28:00.034Z,20
2017-09-26T05:29:10.315Z,20
2017-09-26T05:30:20.268Z,20
2017-09-26T05:31:30.217Z,20
2017-09-26T05:32:40.171Z,20
2017-09-26T05:33:50.455Z,25
2017-09-26T05:35:00.090Z,25
2017-09-26T05:36:10.072Z,25
2017-09-26T05:37:20.028Z,25
2017-09-26T05:38:29.981Z,25
2017-09-26T05:39:40.261Z,20
2017-09-26T05:40:50.536Z,20
2017-09-26T05:42:00.812Z,15
2017-09-26T05:43:10.772Z,20
2017-09-26T05:44:21.066Z,15
2017-09-26T05:45:31.334Z,15
2017-09-26T05:46:41.623Z,15
2017-09-26T05:47:51.251Z,20
2017-09-26T05:49:00.879Z,20
2017-09-26T05:50:11.153Z,20
2017-09-26T05:51:21.107Z,20
2017-09-26T05:52:31.379Z,25
2017-09-26T05:53:41.336Z,25
2017-09-26T05:54:51.632Z,30
2017-09-26T05:56:01.585Z,25
2017-09-26T05:57:11.540Z,30
2017-09-26T05:58:21.169Z,30
2017-09-26T05:59:31.448Z,30
2017-09-26T06:00:41.400Z,30
2017-09-26T06:01:51.684Z,30
2017-09-26T06:03:01.635Z,35
2017-09-26T06:04:11.914Z,35
2017-09-26T06:05:21.864Z,35
2017-09-26T06:06:32.155Z,35
2017-09-26T06:07:42.112Z,35
2017-09-26T06:08:52.401Z,40
2017-09-26T06:10:02.350Z,40
2017-09-26T06:11:11.983Z,40
2017-09-26T06:12:21.940Z,40
2017-09-26T06:13:31.569Z,45
2017-09-26T06:14:41.840Z,45
2017-09-26T06:15:51.792Z,45
2017-09-26T06:17:01.744Z,45
2017-09-26T06:18:11.377Z,45
2017-09-26T06:19:21.649Z,50
2017-09-26T06:20:31.921Z,50
2017-09-26T06:21:41.880Z,50
2017-09-26T06:22:51.834Z,50
2017-09-26T06:24:01.497Z,50
2017-09-26T06:25:11.777Z,50
2017-09-26T06:26:22.053Z,50
2017-09-26T06:27:32.336Z,50
2017-09-26T06:28:42.609Z,50
2017-09-26T06:29:52.892Z,55
2017-09-26T06:31:03.161Z,60
2017-09-26T06:32:13.432Z,55
2017-09-26T06:33:23.704Z,60
2017-09-26T06:34:33.011Z,60
2017-09-26T06:35:43.295Z,55
2017-09-26T06:36:53.577Z,55
2017-09-26T06:38:03.872Z,60
2017-09-26T06:39:14.202Z,60
2017-09-26T06:40:24.195Z,60
2017-09-26T06:41:34.489Z,65
2017-09-26T06:42:44.777Z,70
2017-09-26T06:47:43.554Z,105
2017-09-26T06:48:53.501Z,110
2017-09-26T06:50:03.774Z,120
2017-09-26T06:51:14.052Z,125
2017-09-26T06:52:24.328Z,130
2017-09-26T06:53:33.956Z,130
2017-09-26T06:54:43.943Z,130
2017-09-26T06:55:54.224Z,125
2017-09-26T06:57:04.219Z,125
2017-09-26T06:58:13.849Z,120
2017-09-26T06:59:24.105Z,120
2017-09-26T07:00:34.054Z,125
2017-09-26T07:01:44.329Z,120
2017-09-26T07:02:54.289Z,120
2017-09-26T07:04:03.920Z,120
2017-09-26T07:05:14.196Z,120
2017-09-26T07:06:24.510Z,120
2017-09-26T07:07:34.792Z,120
2017-09-26T07:08:44.422Z,125
2017-09-26T07:09:54.053Z,125
2017-09-26T07:11:04.327Z,130
2017-09-26T07:12:14.618Z,125
2017-09-26T07:13:24.904Z,125
2017-09-26T07:14:34.857Z,125
2017-09-26T07:15:45.139Z,125
2017-09-26T07:16:55.093Z,125
2017-09-26T07:18:05.377Z,120
2017-09-26T07:19:15.655Z,120
2017-09-26T07:20:25.286Z,120
2017-09-26T07:21:35.233Z,120
2017-09-26T07:22:45.195Z,115
2017-09-26T07:23:55.146Z,115
2017-09-26T07:25:04.784Z,125
2017-09-26T07:26:14.091Z,145
2017-09-26T07:27:23.732Z,155
2017-09-26T07:28:34.009Z,160
2017-09-26T07:29:44.290Z,165
2017-09-26T07:30:54.248Z,160
2017-09-26T07:32:04.521Z,160
2017-09-26T07:33:14.148Z,150
2017-09-26T07:34:24.101Z,130
2017-09-26T07:35:34.052Z,120
2017-09-26T07:36:44.331Z,130
2017-09-26T07:37:54.286Z,140
2017-09-26T07:39:04.567Z,150
2017-09-26T07:40:14.525Z,160
2017-09-26T07:41:24.809Z,150
2017-09-26T07:42:34.776Z,145
2017-09-26T07:43:44.739Z,145
2017-09-26T07:44:55.019Z,150
2017-09-26T07:46:05.305Z,160
2017-09-26T07:47:14.940Z,150
2017-09-26T07:48:23.966Z,150
2017-09-26T07:49:33.919Z,145
2017-09-26T07:50:44.197Z,165
2017-09-26T07:51:54.157Z,160
2017-09-26T07:53:03.792Z,145
2017-09-26T07:54:13.762Z,145
2017-09-26T07:55:23.396Z,150
2017-09-26T07:56:33.353Z,175
2017-09-26T07:57:43.302Z,185
2017-09-26T07:58:53.264Z,195
2017-09-26T08:00:03.222Z,215
2017-09-26T08:01:13.175Z,235
2017-09-26T08:02:22.809Z,245
2017-09-26T08:03:32.767Z,245
2017-09-26T08:04:43.042Z,250
2017-09-26T08:05:53.321Z,245
2017-09-26T08:07:02.951Z,250
2017-09-26T08:08:13.241Z,240
2017-09-26T08:09:23.525Z,255
2017-09-26T08:10:33.483Z,250
2017-09-26T08:11:43.441Z,250
2017-09-26T08:12:53.401Z,255
2017-09-26T08:14:03.677Z,255
2017-09-26T08:15:13.956Z,265
2017-09-26T08:16:23.593Z,265
2017-09-26T08:17:33.870Z,260
2017-09-26T08:18:44.159Z,270
2017-09-26T08:19:53.837Z,255
2017-09-26T08:21:03.800Z,235
2017-09-26T08:22:13.752Z,250
2017-09-26T08:23:23.709Z,245
2017-09-26T08:24:33.985Z,235
2017-09-26T08:25:44.265Z,215
2017-09-26T08:26:54.218Z,210
2017-09-26T08:28:04.501Z,215
2017-09-26T08:29:14.779Z,235
2017-09-26T08:30:25.058Z,240
2017-09-26T08:31:35.337Z,220
2017-09-26T08:32:45.612Z,200
2017-09-26T08:33:55.249Z,185
2017-09-26T08:35:05.205Z,185
2017-09-26T08:36:15.164Z,180
2017-09-26T08:37:24.808Z,195
2017-09-26T08:38:35.080Z,230
2017-09-26T08:39:45.038Z,240
2017-09-26T08:40:54.998Z,225
2017-09-26T08:42:05.277Z,215
2017-09-26T08:43:15.552Z,190
2017-09-26T08:44:25.828Z,165
2017-09-26T08:45:36.102Z,165
2017-09-26T08:46:46.377Z,175
2017-09-26T08:47:56.345Z,170
2017-09-26T08:49:06.308Z,160
2017-09-26T08:50:16.585Z,145
2017-09-26T08:51:26.214Z,140
2017-09-26T08:52:36.175Z,145
2017-09-26T08:53:46.447Z,155
2017-09-26T08:54:56.722Z,170
2017-09-26T08:56:07.007Z,180
2017-09-26T08:57:17.282Z,195
2017-09-26T08:58:27.567Z,220
2017-09-26T08:59:37.843Z,225
2017-09-26T09:00:47.805Z,245
2017-09-26T09:01:57.116Z,270
2017-09-26T09:03:07.397Z,270
2017-09-26T09:04:17.345Z,300
2017-09-26T09:05:27.622Z,320
2017-09-26T09:06:37.900Z,330
2017-09-26T09:07:48.176Z,360
2017-09-26T09:08:58.446Z,345
2017-09-26T09:10:08.077Z,335
2017-09-26T09:11:18.359Z,335
2017-09-26T09:12:28.636Z,335
2017-09-26T09:13:38.914Z,345
2017-09-26T09:14:49.195Z,365
2017-09-26T09:15:58.824Z,375
2017-09-26T09:17:09.103Z,375
2017-09-26T09:18:19.059Z,380
2017-09-26T09:19:29.341Z,380
2017-09-26T09:20:39.303Z,380
2017-09-26T09:21:49.582Z,390
2017-09-26T09:22:59.902Z,395
2017-09-26T09:24:10.184Z,390
2017-09-26T09:25:20.142Z,360
2017-09-26T09:26:30.412Z,335
2017-09-26T09:27:40.694Z,345
2017-09-26T09:28:50.969Z,340
2017-09-26T09:30:00.626Z,380
2017-09-26T09:31:10.905Z,360
2017-09-26T09:32:21.196Z,325
2017-09-26T09:33:31.468Z,330
2017-09-26T09:34:40.790Z,350
2017-09-26T09:35:50.422Z,335
2017-09-26T09:37:00.375Z,320
2017-09-26T09:38:10.328Z,340
2017-09-26T09:39:20.614Z,325
2017-09-26T09:40:30.565Z,300
2017-09-26T09:41:40.842Z,290
2017-09-26T09:42:51.120Z,290
2017-09-26T09:44:01.398Z,290
2017-09-26T09:45:11.680Z,290
2017-09-26T09:46:21.319Z,265
2017-09-26T09:47:31.596Z,220
2017-09-26T09:48:41.961Z,195
2017-09-26T09:49:52.235Z,170
2017-09-26T09:51:02.252Z,155
2017-09-26T09:52:12.208Z,165
2017-09-26T09:53:21.840Z,190
2017-09-26T09:54:32.124Z,215
2017-09-26T09:55:41.758Z,220
2017-09-26T09:56:52.042Z,215
2017-09-26T09:58:01.998Z,225
2017-09-26T09:59:12.278Z,235
2017-09-26T10:00:22.591Z,240
2017-09-26T10:01:32.868Z,220
2017-09-26T10:02:42.564Z,225
2017-09-26T10:03:52.522Z,230
2017-09-26T10:05:02.486Z,230
2017-09-26T10:06:12.441Z,225
2017-09-26T10:07:22.401Z,235
2017-09-26T10:08:32.676Z,265
2017-09-26T10:09:42.952Z,275
2017-09-26T10:10:52.906Z,300
2017-09-26T10:12:02.864Z,325
2017-09-26T10:13:13.142Z,350
2017-09-26T10:14:23.418Z,325
2017-09-26T10:15:33.376Z,270
2017-09-26T10:16:43.009Z,255
2017-09-26T10:17:52.642Z,275
2017-09-26T10:19:02.931Z,290
2017-09-26T10:20:12.564Z,285
2017-09-26T10:21:22.842Z,265
2017-09-26T10:22:33.117Z,240
2017-09-26T10:23:43.067Z,190
2017-09-26T10:24:53.019Z,160
2017-09-26T10:26:03.296Z,150
2017-09-26T10:27:13.573Z,155
2017-09-26T10:28:23.534Z,180
2017-09-26T10:29:33.487Z,190
2017-09-26T10:30:43.446Z,165
2017-09-26T10:31:53.399Z,150
2017-09-26T10:33:03.359Z,140
2017-09-26T10:34:13.643Z,150
2017-09-26T10:35:23.918Z,170
2017-09-26T10:36:34.202Z,200
2017-09-26T10:37:44.171Z,230
2017-09-26T10:38:54.127Z,225
2017-09-26T10:40:04.120Z,200
2017-09-26T10:41:14.068Z,175
2017-09-26T10:42:24.390Z,165
2017-09-26T10:43:34.346Z,165
2017-09-26T10:44:44.620Z,175
2017-09-26T10:45:54.895Z,185
2017-09-26T10:47:05.174Z,185
2017-09-26T10:48:15.453Z,180
2017-09-26T10:49:25.086Z,170
2017-09-26T10:50:35.048Z,170
2017-09-26T10:51:44.702Z,175
2017-09-26T10:52:55.005Z,180
2017-09-26T10:54:05.285Z,205
2017-09-26T10:55:15.237Z,225
2017-09-26T10:56:25.524Z,215
2017-09-26T10:57:35.479Z,205
2017-09-26T10:58:45.750Z,215
2017-09-26T10:59:56.024Z,210
2017-09-26T11:01:06.402Z,195
2017-09-26T11:02:16.060Z,190
2017-09-26T11:03:26.015Z,195
2017-09-26T11:04:35.971Z,210
2017-09-26T11:05:46.284Z,210
2017-09-26T11:06:56.567Z,205
2017-09-26T11:08:06.522Z,205
2017-09-26T11:09:16.799Z,215
2017-09-26T11:10:26.429Z,220
2017-09-26T11:11:36.707Z,215
2017-09-26T11:12:46.994Z,210
2017-09-26T11:13:56.950Z,210
2017-09-26T11:15:06.901Z,210
2017-09-26T11:16:16.851Z,225
2017-09-26T11:17:25.841Z,260
2017-09-26T11:18:36.121Z,285
2017-09-26T11:19:46.407Z,280
2017-09-26T11:20:56.362Z,270
2017-09-26T11:22:06.673Z,260
2017-09-26T11:23:16.311Z,270
2017-09-26T11:24:25.624Z,275
2017-09-26T11:25:35.579Z,270
2017-09-26T11:26:45.859Z,255
2017-09-26T11:27:55.869Z,265
2017-09-26T11:29:05.819Z,265
2017-09-26T11:30:15.131Z,270
2017-09-26T11:31:25.404Z,295
2017-09-26T11:32:35.679Z,315
2017-09-26T11:33:45.646Z,300
2017-09-26T11:34:55.922Z,280
2017-09-26T11:36:05.881Z,265
2017-09-26T11:37:16.171Z,275
2017-09-26T11:38:25.801Z,285
2017-09-26T11:39:36.076Z,310
2017-09-26T11:40:46.351Z,335
2017-09-26T11:41:56.627Z,295
2017-09-26T11:43:05.945Z,255
2017-09-26T11:44:15.902Z,230
2017-09-26T11:45:28.330Z,255
2017-09-26T11:46:37.964Z,280
2017-09-26T11:47:48.247Z,290
2017-09-26T11:48:58.533Z,295
2017-09-26T11:50:08.173Z,340
2017-09-26T11:51:17.820Z,430
2017-09-26T11:52:27.457Z,480
2017-09-26T11:53:37.732Z,490
2017-09-26T11:54:47.380Z,510
2017-09-26T11:55:57.339Z,555
2017-09-26T11:57:07.302Z,605
2017-09-26T11:58:16.935Z,905
2017-09-26T11:59:26.894Z,895
2017-09-26T12:00:37.220Z,970
2017-09-26T12:01:46.862Z,935
2017-09-26T12:02:57.141Z,895
2017-09-26T12:04:07.097Z,900
2017-09-26T12:05:17.379Z,640
2017-09-26T12:06:27.341Z,1010
2017-09-26T12:07:37.661Z,725
2017-09-26T12:08:47.957Z,690
2017-09-26T12:09:57.599Z,655
2017-09-26T12:11:07.883Z,605
2017-09-26T12:12:17.873Z,560
2017-09-26T12:13:28.159Z,475
2017-09-26T12:14:38.448Z,425
2017-09-26T12:15:48.738Z,450
2017-09-26T12:16:58.701Z,475
2017-09-26T12:18:08.341Z,500
2017-09-26T12:19:17.662Z,485
2017-09-26T12:20:27.618Z,500
2017-09-26T12:21:37.590Z,480
2017-09-26T12:22:47.898Z,485
2017-09-26T12:23:57.751Z,455
2017-09-26T12:25:07.717Z,420
2017-09-26T12:26:18.006Z,430
2017-09-26T12:27:28.299Z,510
2017-09-26T12:28:37.294Z,425
2017-09-26T12:29:47.255Z,390
2017-09-26T12:30:57.538Z,395
2017-09-26T12:32:07.817Z,435
2017-09-26T12:33:17.776Z,460
2017-09-26T12:34:27.735Z,445
2017-09-26T12:35:38.031Z,435
2017-09-26T12:36:48.309Z,565
2017-09-26T12:37:57.942Z,495
2017-09-26T12:39:07.908Z,640
2017-09-26T12:40:17.546Z,780
2017-09-26T12:41:27.508Z,1215
2017-09-26T12:42:37.797Z,770
2017-09-26T12:43:48.080Z,900
2017-09-26T12:44:58.044Z,1495
2017-09-26T12:46:08.336Z,1345
2017-09-26T12:47:17.654Z,1660
2017-09-26T12:48:27.932Z,600
2017-09-26T12:49:37.571Z,900
2017-09-26T12:50:47.859Z,500
2017-09-26T12:51:57.498Z,710
2017-09-26T12:53:07.784Z,535
2017-09-26T12:54:18.066Z,505
2017-09-26T12:55:28.030Z,415
2017-09-26T12:56:37.993Z,355
2017-09-26T12:57:48.282Z,315
2017-09-26T12:58:58.240Z,290
2017-09-26T13:00:08.203Z,285
2017-09-26T13:01:17.521Z,305
2017-09-26T13:02:27.809Z,335
2017-09-26T13:03:37.770Z,305
2017-09-26T13:04:47.732Z,310
2017-09-26T13:05:57.692Z,330
2017-09-26T13:07:07.977Z,390
2017-09-26T13:08:17.935Z,395
2017-09-26T13:09:28.214Z,395
2017-09-26T13:10:38.532Z,365
2017-09-26T13:11:48.171Z,310
2017-09-26T13:12:58.477Z,270
2017-09-26T13:14:08.119Z,255
2017-09-26T13:15:18.109Z,245
2017-09-26T13:16:28.390Z,250
2017-09-26T13:17:38.685Z,230
2017-09-26T13:18:48.971Z,225
2017-09-26T13:19:58.612Z,230
2017-09-26T13:21:08.889Z,210
2017-09-26T13:22:18.563Z,195
2017-09-26T13:23:28.844Z,200
2017-09-26T13:24:38.802Z,205
2017-09-26T13:25:49.078Z,225
2017-09-26T13:26:59.039Z,225
2017-09-26T13:28:08.998Z,200
2017-09-26T13:29:18.636Z,180
2017-09-26T13:30:28.928Z,165
2017-09-26T13:31:38.882Z,155
2017-09-26T13:32:49.164Z,155
2017-09-26T13:33:59.117Z,155
2017-09-26T13:35:09.401Z,150
2017-09-26T13:36:19.684Z,140
2017-09-26T13:37:29.642Z,135
2017-09-26T13:38:39.920Z,140
2017-09-26T13:39:49.552Z,140
2017-09-26T13:40:59.832Z,140
2017-09-26T13:42:09.802Z,145
2017-09-26T13:43:19.764Z,155
2017-09-26T13:44:29.717Z,170
2017-09-26T13:45:40.002Z,210
2017-09-26T13:46:50.285Z,230
2017-09-26T13:48:00.567Z,245
2017-09-26T13:49:09.882Z,240
2017-09-26T13:50:19.519Z,245
2017-09-26T13:51:29.475Z,250
2017-09-26T13:52:39.429Z,240
2017-09-26T13:53:49.708Z,260
2017-09-26T13:54:59.994Z,275
2017-09-26T13:56:09.952Z,240
2017-09-26T13:57:19.589Z,200
2017-09-26T13:58:29.231Z,190
2017-09-26T13:59:39.192Z,195
2017-09-26T14:00:48.828Z,175
2017-09-26T14:01:59.114Z,170
2017-09-26T14:03:09.395Z,175
2017-09-26T14:04:19.351Z,190
2017-09-26T14:05:28.989Z,190
2017-09-26T14:06:38.954Z,180
2017-09-26T14:07:48.597Z,165
2017-09-26T14:08:58.873Z,165
2017-09-26T14:10:08.831Z,165
2017-09-26T14:11:18.474Z,155
2017-09-26T14:12:28.106Z,155
2017-09-26T14:13:38.422Z,150
2017-09-26T14:14:48.702Z,155
2017-09-26T14:15:58.332Z,155
2017-09-26T14:17:08.611Z,155
2017-09-26T14:18:17.923Z,150
2017-09-26T14:19:27.878Z,150
2017-09-26T14:20:38.166Z,140
2017-09-26T14:21:48.128Z,140
2017-09-26T14:22:58.087Z,140
2017-09-26T14:24:08.041Z,145
2017-09-26T14:25:17.996Z,150
2017-09-26T14:26:27.962Z,150
2017-09-26T14:27:37.925Z,155
2017-09-26T14:28:48.199Z,165
2017-09-26T14:29:58.480Z,170
2017-09-26T14:31:08.441Z,190
2017-09-26T14:32:18.074Z,190
2017-09-26T14:33:28.027Z,200
2017-09-26T14:34:37.671Z,190
2017-09-26T14:35:47.307Z,185
2017-09-26T14:36:56.623Z,165
2017-09-26T14:38:06.957Z,155
2017-09-26T14:39:17.235Z,150
2017-09-26T14:40:27.194Z,160
2017-09-26T14:41:37.153Z,155
2017-09-26T14:42:47.430Z,140
2017-09-26T14:43:56.740Z,140
2017-09-26T14:45:07.056Z,130
2017-09-26T14:46:17.344Z,130
2017-09-26T14:47:27.622Z,125
2017-09-26T14:48:37.267Z,120
2017-09-26T14:49:47.573Z,110
2017-09-26T14:50:57.205Z,110
2017-09-26T14:52:07.492Z,110
2017-09-26T14:53:17.773Z,105
2017-09-26T14:54:27.731Z,90
2017-09-26T14:55:37.362Z,85
2017-09-26T14:56:47.319Z,75
2017-09-26T14:57:56.958Z,75
2017-09-26T14:59:07.241Z,75
2017-09-26T15:00:16.874Z,70
2017-09-26T15:01:26.509Z,70
2017-09-26T15:02:36.793Z,65
2017-09-26T15:03:46.750Z,65
2017-09-26T15:04:56.383Z,65
2017-09-26T15:06:06.041Z,60
2017-09-26T15:07:15.996Z,55
2017-09-26T15:08:25.628Z,60
2017-09-26T15:09:35.921Z,60
2017-09-26T15:10:46.213Z,55
2017-09-26T15:11:56.166Z,55
2017-09-26T15:13:05.833Z,60
2017-09-26T15:14:15.794Z,65
2017-09-26T15:15:25.751Z,70
2017-09-26T15:16:36.056Z,70
2017-09-26T15:17:46.327Z,70
2017-09-26T15:18:56.610Z,70
2017-09-26T15:20:06.568Z,70
2017-09-26T15:21:16.528Z,70
2017-09-26T15:22:26.486Z,65
2017-09-26T15:23:36.442Z,55
2017-09-26T15:24:46.732Z,45
2017-09-26T15:25:56.693Z,40
2017-09-26T15:27:06.970Z,40
2017-09-26T15:28:16.922Z,40
2017-09-26T15:29:26.878Z,40
2017-09-26T15:30:36.835Z,40
2017-09-26T15:31:46.788Z,40
2017-09-26T15:32:56.747Z,45
2017-09-26T15:34:06.704Z,50
2017-09-26T15:35:16.988Z,55
2017-09-26T15:36:26.619Z,55
2017-09-26T15:37:36.896Z,50
2017-09-26T15:38:46.850Z,45
2017-09-26T15:39:57.127Z,45
2017-09-26T15:41:07.088Z,45
2017-09-26T15:42:17.385Z,40
2017-09-26T15:43:27.050Z,40
2017-09-26T15:44:37.326Z,40
2017-09-26T15:45:47.614Z,40
2017-09-26T15:46:57.577Z,40
2017-09-26T15:48:07.850Z,35
2017-09-26T15:49:18.134Z,35
2017-09-26T15:50:28.413Z,35
2017-09-26T15:51:38.371Z,30
2017-09-26T15:52:48.650Z,30
2017-09-26T15:53:58.928Z,30
2017-09-26T15:55:08.888Z,30
2017-09-26T15:56:19.161Z,30
2017-09-26T15:57:29.453Z,25
2017-09-26T15:58:39.732Z,25
2017-09-26T15:59:49.689Z,25
2017-09-26T16:00:59.651Z,25
2017-09-26T16:02:09.928Z,30
2017-09-26T16:03:19.563Z,25
2017-09-26T16:04:29.523Z,25
2017-09-26T16:05:39.808Z,25
2017-09-26T16:06:50.089Z,25
2017-09-26T16:08:00.045Z,25
2017-09-26T16:09:10.321Z,25
2017-09-26T16:10:20.323Z,25
2017-09-26T16:11:30.597Z,25
2017-09-26T16:12:40.230Z,25
2017-09-26T16:13:50.185Z,25
2017-09-26T16:14:59.828Z,25
2017-09-26T16:16:09.791Z,25
2017-09-26T16:17:19.749Z,25
2017-09-26T16:18:29.387Z,25
2017-09-26T16:19:39.349Z,20
2017-09-26T16:20:49.621Z,20
2017-09-26T16:21:59.898Z,20
2017-09-26T16:23:09.854Z,20
2017-09-26T16:24:19.493Z,20
2017-09-26T16:25:29.450Z,15
2017-09-26T16:26:39.726Z,15
2017-09-26T16:27:50.016Z,15
2017-09-26T16:28:59.647Z,15
2017-09-26T16:30:09.924Z,15
2017-09-26T16:31:19.876Z,15
2017-09-26T16:32:29.836Z,15
2017-09-26T16:33:40.116Z,15
2017-09-26T16:34:49.752Z,15
2017-09-26T16:36:00.040Z,15
2017-09-26T16:37:09.676Z,15